DAL1622 KATL-KJFK
Flight info
| Callsign | DAL1622 |
|---|---|
| Flight time | N/A |
| Altitude | 35000 |
| Route | PHIIL3 HRTWL Q64 SAWED Q108 SIE CAMRN5 |
| Aircraft | B753/M-SDE2E3FGHIJ3J4J7RWXY/LB1 |
Departure
| Time | 2026-05-04 09:37 |
|---|---|
| Airport | Hartsfield Jackson Atlanta International Airport (KATL) |
Arrival
| Time | N/A |
|---|---|
| Airport | John F. Kennedy International Airport (KJFK) |
| Time | Latitude | Longitude | Altitude | Speed | Heading |
|---|---|---|---|---|---|
| 2026-05-04 09:26 | 33.63663 | -84.43147 | 1012 ft | 3 kts | 91° |
| 2026-05-04 09:26 | 33.63663 | -84.43111 | 1012 ft | 5 kts | 91° |
| 2026-05-04 09:26 | 33.63663 | -84.43050 | 1012 ft | 5 kts | 91° |
| 2026-05-04 09:27 | 33.63662 | -84.42999 | 1012 ft | 6 kts | 91° |
| 2026-05-04 09:27 | 33.63662 | -84.42962 | 1011 ft | 7 kts | 91° |
| 2026-05-04 09:27 | 33.63661 | -84.42897 | 1010 ft | 8 kts | 90° |
| 2026-05-04 09:27 | 33.63662 | -84.42825 | 1009 ft | 9 kts | 90° |
| 2026-05-04 09:28 | 33.63659 | -84.42748 | 1007 ft | 9 kts | 95° |
| 2026-05-04 09:28 | 33.63654 | -84.42667 | 1005 ft | 10 kts | 91° |
| 2026-05-04 09:28 | 33.63653 | -84.42548 | 1003 ft | 11 kts | 90° |
| 2026-05-04 09:28 | 33.63653 | -84.42485 | 1002 ft | 11 kts | 90° |
| 2026-05-04 09:29 | 33.63655 | -84.42375 | 997 ft | 14 kts | 89° |
| 2026-05-04 09:29 | 33.63654 | -84.42200 | 990 ft | 17 kts | 91° |
| 2026-05-04 09:29 | 33.63654 | -84.42098 | 986 ft | 19 kts | 89° |
| 2026-05-04 09:29 | 33.63655 | -84.41928 | 978 ft | 22 kts | 90° |
| 2026-05-04 09:30 | 33.63656 | -84.41661 | 969 ft | 24 kts | 89° |
| 2026-05-04 09:30 | 33.63656 | -84.41558 | 967 ft | 8 kts | 90° |
| 2026-05-04 09:30 | 33.63655 | -84.41484 | 966 ft | 9 kts | 91° |
| 2026-05-04 09:30 | 33.63654 | -84.41410 | 966 ft | 8 kts | 91° |
| 2026-05-04 09:31 | 33.63653 | -84.41346 | 966 ft | 7 kts | 91° |
| 2026-05-04 09:31 | 33.63652 | -84.41286 | 966 ft | 6 kts | 91° |
| 2026-05-04 09:31 | 33.63655 | -84.41232 | 966 ft | 6 kts | 87° |
| 2026-05-04 09:31 | 33.63656 | -84.41161 | 966 ft | 6 kts | 90° |
| 2026-05-04 09:32 | 33.63656 | -84.41101 | 964 ft | 7 kts | 90° |
| 2026-05-04 09:32 | 33.63656 | -84.41056 | 964 ft | 8 kts | 90° |
| 2026-05-04 09:34 | 33.63471 | -84.40901 | 958 ft | 5 kts | 270° |
| 2026-05-04 09:34 | 33.63471 | -84.40922 | 959 ft | 5 kts | 270° |
| 2026-05-04 09:34 | 33.63471 | -84.40933 | 960 ft | 0 kts | 270° |
| 2026-05-04 09:35 | 33.63471 | -84.40968 | 961 ft | 21 kts | 270° |
| 2026-05-04 09:35 | 33.63472 | -84.41231 | 966 ft | 68 kts | 270° |
| 2026-05-04 09:35 | 33.63471 | -84.42007 | 986 ft | 118 kts | 270° |
| 2026-05-04 09:35 | 33.63471 | -84.43179 | 1013 ft | 162 kts | 270° |
| 2026-05-04 09:37 | 33.60513 | -84.54774 | 4764 ft | 262 kts | 242° |
| 2026-05-04 09:37 | 33.59577 | -84.56572 | 5636 ft | 269 kts | 230° |
| 2026-05-04 09:38 | 33.57437 | -84.58122 | 6770 ft | 282 kts | 192° |
| 2026-05-04 09:38 | 33.55490 | -84.58185 | 7607 ft | 288 kts | 176° |